sensor_id;sensor_type;location;lat;lon;timestamp;pressure;altitude;pressure_sealevel;temperature;humidity
46087;BME280;31824;49.648;8.640;2024-02-21T00:00:30;101335.53;;;7.93;100.00
46087;BME280;31824;49.648;8.640;2024-02-21T00:03:32;101325.44;;;7.89;100.00
46087;BME280;31824;49.648;8.640;2024-02-21T00:06:34;101325.63;;;7.90;100.00
46087;BME280;31824;49.648;8.640;2024-02-21T00:09:37;101327.50;;;7.91;100.00
46087;BME280;31824;49.648;8.640;2024-02-21T00:12:44;101315.53;;;7.86;100.00
46087;BME280;31824;49.648;8.640;2024-02-21T00:15:46;101312.53;;;7.83;100.00
46087;BME280;31824;49.648;8.640;2024-02-21T00:18:48;101314.94;;;7.82;100.00
46087;BME280;31824;49.648;8.640;2024-02-21T00:21:50;101317.97;;;7.85;100.00
46087;BME280;31824;49.648;8.640;2024-02-21T00:24:52;101309.75;;;7.89;100.00
46087;BME280;31824;49.648;8.640;2024-02-21T00:27:55;101309.34;;;7.86;100.00
46087;BME280;31824;49.648;8.640;2024-02-21T00:30:57;101313.84;;;7.80;100.00
46087;BME280;31824;49.648;8.640;2024-02-21T00:34:00;101297.56;;;7.75;100.00
46087;BME280;31824;49.648;8.640;2024-02-21T00:37:02;101285.25;;;7.67;100.00
46087;BME280;31824;49.648;8.640;2024-02-21T00:40:05;101285.09;;;7.58;100.00
46087;BME280;31824;49.648;8.640;2024-02-21T00:43:11;101279.09;;;7.52;100.00
46087;BME280;31824;49.648;8.640;2024-02-21T00:46:13;101285.84;;;7.50;100.00
46087;BME280;31824;49.648;8.640;2024-02-21T00:49:15;101269.03;;;7.40;100.00
46087;BME280;31824;49.648;8.640;2024-02-21T00:52:18;101274.97;;;7.39;100.00
46087;BME280;31824;49.648;8.640;2024-02-21T00:55:19;101266.97;;;7.38;100.00
46087;BME280;31824;49.648;8.640;2024-02-21T00:58:23;101260.25;;;7.40;100.00
46087;BME280;31824;49.648;8.640;2024-02-21T01:01:25;101244.00;;;7.35;100.00
46087;BME280;31824;49.648;8.640;2024-02-21T01:04:27;101234.66;;;7.37;100.00
46087;BME280;31824;49.648;8.640;2024-02-21T01:07:29;101235.03;;;7.40;100.00
46087;BME280;31824;49.648;8.640;2024-02-21T01:10:31;101218.22;;;7.46;100.00
46087;BME280;31824;49.648;8.640;2024-02-21T01:13:35;101211.13;;;7.44;100.00
46087;BME280;31824;49.648;8.640;2024-02-21T01:16:37;101212.81;;;7.44;100.00
46087;BME280;31824;49.648;8.640;2024-02-21T01:19:39;101208.50;;;7.44;100.00
46087;BME280;31824;49.648;8.640;2024-02-21T01:22:43;101205.91;;;7.44;100.00
46087;BME280;31824;49.648;8.640;2024-02-21T01:25:45;101195.47;;;7.37;100.00
46087;BME280;31824;49.648;8.640;2024-02-21T01:28:48;101208.34;;;7.36;100.00
46087;BME280;31824;49.648;8.640;2024-02-21T01:31:50;101201.78;;;7.39;100.00
46087;BME280;31824;49.648;8.640;2024-02-21T01:34:52;101204.41;;;7.39;100.00
46087;BME280;31824;49.648;8.640;2024-02-21T01:37:54;101199.00;;;7.38;100.00
46087;BME280;31824;49.648;8.640;2024-02-21T01:40:56;101216.56;;;7.39;100.00
46087;BME280;31824;49.648;8.640;2024-02-21T01:43:59;101223.28;;;7.44;100.00
46087;BME280;31824;49.648;8.640;2024-02-21T01:47:01;101209.25;;;7.43;100.00
46087;BME280;31824;49.648;8.640;2024-02-21T01:50:04;101199.56;;;7.42;100.00
46087;BME280;31824;49.648;8.640;2024-02-21T01:53:07;101196.94;;;7.42;100.00
46087;BME280;31824;49.648;8.640;2024-02-21T01:56:10;101199.75;;;7.44;100.00
46087;BME280;31824;49.648;8.640;2024-02-21T01:59:15;101195.06;;;7.41;100.00
46087;BME280;31824;49.648;8.640;2024-02-21T02:02:18;101193.00;;;7.46;100.00
46087;BME280;31824;49.648;8.640;2024-02-21T02:05:20;101199.56;;;7.50;100.00
46087;BME280;31824;49.648;8.640;2024-02-21T02:08:23;101203.44;;;7.53;100.00
46087;BME280;31824;49.648;8.640;2024-02-21T02:11:25;101207.00;;;7.54;100.00
46087;BME280;31824;49.648;8.640;2024-02-21T02:14:28;101197.09;;;7.58;100.00
46087;BME280;31824;49.648;8.640;2024-02-21T02:17:30;101195.03;;;7.56;100.00
46087;BME280;31824;49.648;8.640;2024-02-21T02:20:32;101189.63;;;7.54;100.00
46087;BME280;31824;49.648;8.640;2024-02-21T02:23:36;101168.34;;;7.51;100.00
46087;BME280;31824;49.648;8.640;2024-02-21T02:26:38;101160.69;;;7.53;100.00
46087;BME280;31824;49.648;8.640;2024-02-21T02:29:42;101155.28;;;7.51;100.00
46087;BME280;31824;49.648;8.640;2024-02-21T02:32:44;101153.59;;;7.52;100.00
46087;BME280;31824;49.648;8.640;2024-02-21T02:35:47;101152.84;;;7.53;100.00
46087;BME280;31824;49.648;8.640;2024-02-21T02:38:51;101146.50;;;7.51;100.00
46087;BME280;31824;49.648;8.640;2024-02-21T02:41:53;101142.03;;;7.50;100.00
46087;BME280;31824;49.648;8.640;2024-02-21T02:44:55;101126.72;;;7.46;100.00
46087;BME280;31824;49.648;8.640;2024-02-21T02:47:59;101123.16;;;7.45;100.00
46087;BME280;31824;49.648;8.640;2024-02-21T02:51:01;101128.38;;;7.45;100.00
46087;BME280;31824;49.648;8.640;2024-02-21T02:54:05;101129.16;;;7.44;100.00
46087;BME280;31824;49.648;8.640;2024-02-21T02:57:07;101139.06;;;7.47;100.00
46087;BME280;31824;49.648;8.640;2024-02-21T03:00:11;101134.94;;;7.49;100.00
46087;BME280;31824;49.648;8.640;2024-02-21T03:03:13;101134.00;;;7.48;100.00
46087;BME280;31824;49.648;8.640;2024-02-21T03:06:15;101135.09;;;7.50;100.00
46087;BME280;31824;49.648;8.640;2024-02-21T03:09:18;101124.09;;;7.53;100.00
46087;BME280;31824;49.648;8.640;2024-02-21T03:12:23;101124.09;;;7.53;100.00
46087;BME280;31824;49.648;8.640;2024-02-21T03:15:30;101111.75;;;7.52;100.00
46087;BME280;31824;49.648;8.640;2024-02-21T03:18:32;101111.41;;;7.49;100.00
46087;BME280;31824;49.648;8.640;2024-02-21T03:21:34;101098.50;;;7.50;100.00
46087;BME280;31824;49.648;8.640;2024-02-21T03:24:37;101097.56;;;7.50;100.00
46087;BME280;31824;49.648;8.640;2024-02-21T03:27:39;101097.56;;;7.50;100.00
46087;BME280;31824;49.648;8.640;2024-02-21T03:30:41;101086.56;;;7.45;100.00
46087;BME280;31824;49.648;8.640;2024-02-21T03:33:43;101085.47;;;7.43;100.00
46087;BME280;31824;49.648;8.640;2024-02-21T03:36:45;101093.47;;;7.44;100.00
46087;BME280;31824;49.648;8.640;2024-02-21T03:39:49;101092.56;;;7.44;100.00
46087;BME280;31824;49.648;8.640;2024-02-21T03:42:51;101083.94;;;7.45;100.00
46087;BME280;31824;49.648;8.640;2024-02-21T03:45:53;101081.31;;;7.45;100.00
46087;BME280;31824;49.648;8.640;2024-02-21T03:48:54;101078.16;;;7.48;100.00
46087;BME280;31824;49.648;8.640;2024-02-21T03:51:56;101073.88;;;7.48;100.00
46087;BME280;31824;49.648;8.640;2024-02-21T03:55:00;101078.53;;;7.51;100.00
46087;BME280;31824;49.648;8.640;2024-02-21T03:58:02;101089.56;;;7.48;100.00
46087;BME280;31824;49.648;8.640;2024-02-21T04:01:04;101088.44;;;7.46;100.00
46087;BME280;31824;49.648;8.640;2024-02-21T04:04:06;101103.56;;;7.41;100.00
46087;BME280;31824;49.648;8.640;2024-02-21T04:07:08;101094.41;;;7.45;100.00
46087;BME280;31824;49.648;8.640;2024-02-21T04:10:13;101098.53;;;7.43;100.00
46087;BME280;31824;49.648;8.640;2024-02-21T04:13:15;101095.56;;;7.40;100.00
46087;BME280;31824;49.648;8.640;2024-02-21T04:16:17;101094.59;;;7.39;100.00
46087;BME280;31824;49.648;8.640;2024-02-21T04:19:19;101091.25;;;7.40;100.00
46087;BME280;31824;49.648;8.640;2024-02-21T04:22:21;101095.75;;;7.41;100.00
46087;BME280;31824;49.648;8.640;2024-02-21T04:25:25;101077.03;;;7.38;100.00
46087;BME280;31824;49.648;8.640;2024-02-21T04:28:26;101073.69;;;7.39;100.00
46087;BME280;31824;49.648;8.640;2024-02-21T04:31:28;101071.06;;;7.39;100.00
46087;BME280;31824;49.648;8.640;2024-02-21T04:34:30;101060.06;;;7.42;100.00
46087;BME280;31824;49.648;8.640;2024-02-21T04:37:32;101054.47;;;7.39;100.00
46087;BME280;31824;49.648;8.640;2024-02-21T04:40:36;101057.09;;;7.39;100.00
46087;BME280;31824;49.648;8.640;2024-02-21T04:43:38;101043.44;;;7.34;100.00
46087;BME280;31824;49.648;8.640;2024-02-21T04:46:41;101047.00;;;7.35;100.00
46087;BME280;31824;49.648;8.640;2024-02-21T04:49:44;101041.22;;;7.37;100.00
46087;BME280;31824;49.648;8.640;2024-02-21T04:52:46;101038.44;;;7.36;100.00
46087;BME280;31824;49.648;8.640;2024-02-21T04:55:49;101042.72;;;7.35;100.00
46087;BME280;31824;49.648;8.640;2024-02-21T04:58:51;101026.09;;;7.35;100.00
46087;BME280;31824;49.648;8.640;2024-02-21T05:01:53;101016.78;;;7.30;100.00
46087;BME280;31824;49.648;8.640;2024-02-21T05:04:55;101011.16;;;7.34;100.00
46087;BME280;31824;49.648;8.640;2024-02-21T05:07:58;100996.03;;;7.31;100.00
46087;BME280;31824;49.648;8.640;2024-02-21T05:11:02;100995.47;;;7.34;100.00
46087;BME280;31824;49.648;8.640;2024-02-21T05:14:04;100996.22;;;7.33;100.00
46087;BME280;31824;49.648;8.640;2024-02-21T05:17:07;101005.03;;;7.33;100.00
46087;BME280;31824;49.648;8.640;2024-02-21T05:20:09;101002.75;;;7.36;100.00
46087;BME280;31824;49.648;8.640;2024-02-21T05:23:12;101004.44;;;7.36;100.00
46087;BME280;31824;49.648;8.640;2024-02-21T05:26:21;100998.28;;;7.35;100.00
46087;BME280;31824;49.648;8.640;2024-02-21T05:29:23;100986.16;;;7.36;100.00
46087;BME280;31824;49.648;8.640;2024-02-21T05:32:25;100981.09;;;7.37;100.00
46087;BME280;31824;49.648;8.640;2024-02-21T05:35:28;100988.78;;;7.36;100.00
46087;BME280;31824;49.648;8.640;2024-02-21T05:38:31;101001.84;;;7.36;100.00
46087;BME280;31824;49.648;8.640;2024-02-21T05:41:34;101004.44;;;7.36;100.00
46087;BME280;31824;49.648;8.640;2024-02-21T05:44:36;101004.25;;;7.34;100.00
46087;BME280;31824;49.648;8.640;2024-02-21T05:47:41;101003.31;;;7.34;100.00
46087;BME280;31824;49.648;8.640;2024-02-21T05:50:43;100997.91;;;7.32;100.00
46087;BME280;31824;49.648;8.640;2024-02-21T05:53:45;100990.81;;;7.31;100.00
46087;BME280;31824;49.648;8.640;2024-02-21T05:56:48;100985.44;;;7.22;100.00
46087;BME280;31824;49.648;8.640;2024-02-21T05:59:50;100969.03;;;7.16;100.00
46087;BME280;31824;49.648;8.640;2024-02-21T06:02:51;100969.59;;;7.14;100.00
46087;BME280;31824;49.648;8.640;2024-02-21T06:05:53;100959.38;;;7.08;100.00
46087;BME280;31824;49.648;8.640;2024-02-21T06:08:55;100959.75;;;7.04;100.00
46087;BME280;31824;49.648;8.640;2024-02-21T06:11:59;100954.34;;;7.02;100.00
46087;BME280;31824;49.648;8.640;2024-02-21T06:15:01;100965.94;;;6.97;100.00
46087;BME280;31824;49.648;8.640;2024-02-21T06:18:03;100965.56;;;6.94;100.00
46087;BME280;31824;49.648;8.640;2024-02-21T06:21:05;100964.25;;;6.90;100.00
46087;BME280;31824;49.648;8.640;2024-02-21T06:24:07;100969.31;;;6.89;100.00
46087;BME280;31824;49.648;8.640;2024-02-21T06:27:11;100976.22;;;6.88;100.00
46087;BME280;31824;49.648;8.640;2024-02-21T06:30:13;100970.03;;;6.88;100.00
46087;BME280;31824;49.648;8.640;2024-02-21T06:33:15;100970.44;;;6.84;100.00
46087;BME280;31824;49.648;8.640;2024-02-21T06:36:17;100967.47;;;6.81;100.00
46087;BME280;31824;49.648;8.640;2024-02-21T06:39:20;100962.97;;;6.80;100.00
46087;BME280;31824;49.648;8.640;2024-02-21T06:42:25;100958.69;;;6.73;100.00
46087;BME280;31824;49.648;8.640;2024-02-21T06:45:27;100949.78;;;6.71;100.00
46087;BME280;31824;49.648;8.640;2024-02-21T06:48:29;100949.78;;;6.64;100.00
46087;BME280;31824;49.648;8.640;2024-02-21T06:51:31;100951.09;;;6.60;100.00
46087;BME280;31824;49.648;8.640;2024-02-21T06:54:33;100945.31;;;6.63;100.00
46087;BME280;31824;49.648;8.640;2024-02-21T06:57:36;100949.56;;;6.62;100.00
46087;BME280;31824;49.648;8.640;2024-02-21T07:00:38;100958.91;;;6.67;100.00
46087;BME280;31824;49.648;8.640;2024-02-21T07:03:40;100963.38;;;6.75;100.00
46087;BME280;31824;49.648;8.640;2024-02-21T07:06:42;100957.00;;;6.81;100.00
46087;BME280;31824;49.648;8.640;2024-02-21T07:09:44;100963.34;;;6.90;100.00
46087;BME280;31824;49.648;8.640;2024-02-21T07:12:51;100954.19;;;6.93;100.00
46087;BME280;31824;49.648;8.640;2024-02-21T07:15:54;100951.19;;;6.98;100.00
46087;BME280;31824;49.648;8.640;2024-02-21T07:18:56;100951.16;;;7.05;100.00
46087;BME280;31824;49.648;8.640;2024-02-21T07:21:58;100952.47;;;7.01;100.00
46087;BME280;31824;49.648;8.640;2024-02-21T07:25:00;100950.59;;;7.07;100.00
46087;BME280;31824;49.648;8.640;2024-02-21T07:28:06;100948.34;;;7.10;100.00
46087;BME280;31824;49.648;8.640;2024-02-21T07:31:08;100944.25;;;7.13;100.00
46087;BME280;31824;49.648;8.640;2024-02-21T07:34:10;100933.94;;;7.21;100.00
46087;BME280;31824;49.648;8.640;2024-02-21T07:37:13;100928.88;;;7.23;100.00
46087;BME280;31824;49.648;8.640;2024-02-21T07:40:15;100935.97;;;7.24;100.00
46087;BME280;31824;49.648;8.640;2024-02-21T07:43:19;100941.56;;;7.27;100.00
46087;BME280;31824;49.648;8.640;2024-02-21T07:46:24;100950.88;;;7.32;100.00
46087;BME280;31824;49.648;8.640;2024-02-21T07:49:26;100946.94;;;7.36;100.00
46087;BME280;31824;49.648;8.640;2024-02-21T07:52:28;100939.28;;;7.37;100.00
46087;BME280;31824;49.648;8.640;2024-02-21T07:55:30;100943.16;;;7.41;100.00
46087;BME280;31824;49.648;8.640;2024-02-21T07:58:33;100938.66;;;7.47;100.00
46087;BME280;31824;49.648;8.640;2024-02-21T08:01:35;100942.56;;;7.51;100.00
46087;BME280;31824;49.648;8.640;2024-02-21T08:04:37;100930.06;;;7.48;100.00
46087;BME280;31824;49.648;8.640;2024-02-21T08:07:39;100929.69;;;7.52;100.00
46087;BME280;31824;49.648;8.640;2024-02-21T08:10:41;100927.47;;;7.48;100.00
46087;BME280;31824;49.648;8.640;2024-02-21T08:13:45;100922.56;;;7.51;100.00
46087;BME280;31824;49.648;8.640;2024-02-21T08:16:47;100908.38;;;7.49;100.00
46087;BME280;31824;49.648;8.640;2024-02-21T08:19:49;100911.59;;;7.47;100.00
46087;BME280;31824;49.648;8.640;2024-02-21T08:22:51;100906.78;;;7.42;100.00
46087;BME280;31824;49.648;8.640;2024-02-21T08:25:53;100912.69;;;7.49;100.00
46087;BME280;31824;49.648;8.640;2024-02-21T08:28:57;100907.47;;;7.49;100.00
46087;BME280;31824;49.648;8.640;2024-02-21T08:32:03;100898.13;;;7.51;100.00
46087;BME280;31824;49.648;8.640;2024-02-21T08:35:06;100897.19;;;7.50;100.00
46087;BME280;31824;49.648;8.640;2024-02-21T08:38:08;100891.78;;;7.49;100.00
46087;BME280;31824;49.648;8.640;2024-02-21T08:41:10;100886.47;;;7.63;100.00
46087;BME280;31824;49.648;8.640;2024-02-21T08:44:13;100878.38;;;7.69;100.00
46087;BME280;31824;49.648;8.640;2024-02-21T08:47:15;100884.59;;;7.62;100.00
46087;BME280;31824;49.648;8.640;2024-02-21T08:50:17;100879.94;;;7.59;100.00
46087;BME280;31824;49.648;8.640;2024-02-21T08:53:28;100880.13;;;7.61;100.00
46087;BME280;31824;49.648;8.640;2024-02-21T08:56:30;100876.19;;;7.57;100.00
46087;BME280;31824;49.648;8.640;2024-02-21T08:59:34;100876.34;;;7.66;100.00
46087;BME280;31824;49.648;8.640;2024-02-21T09:02:37;100873.66;;;7.73;100.00
46087;BME280;31824;49.648;8.640;2024-02-21T09:05:39;100875.72;;;7.76;100.00
46087;BME280;31824;49.648;8.640;2024-02-21T09:08:41;100870.97;;;7.88;100.00
46087;BME280;31824;49.648;8.640;2024-02-21T09:11:44;100863.22;;;7.97;100.00
46087;BME280;31824;49.648;8.640;2024-02-21T09:14:47;100854.38;;;8.03;100.00
46087;BME280;31824;49.648;8.640;2024-02-21T09:17:52;100856.28;;;8.20;100.00
46087;BME280;31824;49.648;8.640;2024-02-21T09:20:54;100845.09;;;8.14;100.00
46087;BME280;31824;49.648;8.640;2024-02-21T09:23:56;100842.19;;;8.43;100.00
46087;BME280;31824;49.648;8.640;2024-02-21T09:27:01;100829.06;;;8.50;100.00
46087;BME280;31824;49.648;8.640;2024-02-21T09:30:06;100830.69;;;8.57;100.00
46087;BME280;31824;49.648;8.640;2024-02-21T09:33:08;100835.13;;;8.58;100.00
46087;BME280;31824;49.648;8.640;2024-02-21T09:36:12;100828.56;;;8.61;100.00
46087;BME280;31824;49.648;8.640;2024-02-21T09:39:14;100827.06;;;8.64;100.00
46087;BME280;31824;49.648;8.640;2024-02-21T09:42:20;100826.22;;;8.72;100.00
46087;BME280;31824;49.648;8.640;2024-02-21T09:45:25;100828.47;;;8.85;100.00
46087;BME280;31824;49.648;8.640;2024-02-21T09:48:34;100823.38;;;8.86;100.00
46087;BME280;31824;49.648;8.640;2024-02-21T09:51:39;100814.59;;;8.86;100.00
46087;BME280;31824;49.648;8.640;2024-02-21T09:54:42;100809.34;;;9.02;100.00
46087;BME280;31824;49.648;8.640;2024-02-21T09:57:47;100806.09;;;9.04;100.00
46087;BME280;31824;49.648;8.640;2024-02-21T10:00:51;100810.97;;;9.33;100.00
46087;BME280;31824;49.648;8.640;2024-02-21T10:03:54;100799.53;;;9.33;100.00
46087;BME280;31824;49.648;8.640;2024-02-21T10:06:59;100810.69;;;9.39;100.00
46087;BME280;31824;49.648;8.640;2024-02-21T10:10:02;100802.69;;;9.46;100.00
46087;BME280;31824;49.648;8.640;2024-02-21T10:13:04;100795.78;;;9.46;100.00
46087;BME280;31824;49.648;8.640;2024-02-21T10:16:08;100796.25;;;9.51;100.00
46087;BME280;31824;49.648;8.640;2024-02-21T10:19:17;100789.69;;;9.39;100.00
46087;BME280;31824;49.648;8.640;2024-02-21T10:22:19;100795.06;;;9.65;100.00
46087;BME280;31824;49.648;8.640;2024-02-21T10:25:27;100785.25;;;9.80;100.00
46087;BME280;31824;49.648;8.640;2024-02-21T10:28:29;100779.19;;;9.72;100.00
46087;BME280;31824;49.648;8.640;2024-02-21T10:31:32;100775.63;;;9.63;100.00
46087;BME280;31824;49.648;8.640;2024-02-21T10:34:35;100775.88;;;9.82;100.00
46087;BME280;31824;49.648;8.640;2024-02-21T10:37:37;100784.78;;;9.42;100.00
46087;BME280;31824;49.648;8.640;2024-02-21T10:40:39;100757.72;;;9.59;100.00
46087;BME280;31824;49.648;8.640;2024-02-21T10:43:44;100749.13;;;9.69;100.00
46087;BME280;31824;49.648;8.640;2024-02-21T10:46:50;100753.38;;;9.93;100.00
46087;BME280;31824;49.648;8.640;2024-02-21T10:50:02;100738.19;;;9.82;100.00
46087;BME280;31824;49.648;8.640;2024-02-21T10:53:09;100738.13;;;10.06;100.00
46087;BME280;31824;49.648;8.640;2024-02-21T10:56:22;100727.47;;;10.13;100.00
46087;BME280;31824;49.648;8.640;2024-02-21T10:59:26;100723.19;;;10.23;100.00
46087;BME280;31824;49.648;8.640;2024-02-21T11:02:32;100724.53;;;10.10;100.00
46087;BME280;31824;49.648;8.640;2024-02-21T11:05:36;100714.69;;;10.34;100.00
46087;BME280;31824;49.648;8.640;2024-02-21T11:08:41;100715.91;;;10.20;100.00
46087;BME280;31824;49.648;8.640;2024-02-21T11:11:44;100711.00;;;10.41;100.00
46087;BME280;31824;49.648;8.640;2024-02-21T11:14:48;100698.66;;;10.57;100.00
46087;BME280;31824;49.648;8.640;2024-02-21T11:17:55;100696.47;;;10.36;100.00
46087;BME280;31824;49.648;8.640;2024-02-21T11:21:03;100691.81;;;10.24;100.00
46087;BME280;31824;49.648;8.640;2024-02-21T11:24:07;100686.44;;;10.67;100.00
46087;BME280;31824;49.648;8.640;2024-02-21T11:27:11;100687.81;;;10.89;100.00
46087;BME280;31824;49.648;8.640;2024-02-21T11:30:13;100679.94;;;10.45;100.00
46087;BME280;31824;49.648;8.640;2024-02-21T11:33:18;100666.34;;;10.58;100.00
46087;BME280;31824;49.648;8.640;2024-02-21T11:36:24;100658.31;;;10.48;100.00
46087;BME280;31824;49.648;8.640;2024-02-21T11:39:26;100653.19;;;10.67;100.00
46087;BME280;31824;49.648;8.640;2024-02-21T11:42:29;100651.50;;;10.68;100.00
46087;BME280;31824;49.648;8.640;2024-02-21T11:45:33;100646.69;;;10.72;100.00
46087;BME280;31824;49.648;8.640;2024-02-21T11:48:37;100626.78;;;10.48;100.00
46087;BME280;31824;49.648;8.640;2024-02-21T11:51:41;100625.06;;;10.66;100.00
46087;BME280;31824;49.648;8.640;2024-02-21T11:54:43;100619.69;;;10.56;100.00
46087;BME280;31824;49.648;8.640;2024-02-21T11:57:47;100611.03;;;10.57;100.00
46087;BME280;31824;49.648;8.640;2024-02-21T12:00:49;100617.81;;;10.63;100.00
46087;BME280;31824;49.648;8.640;2024-02-21T12:03:52;100603.13;;;10.66;100.00
46087;BME280;31824;49.648;8.640;2024-02-21T12:06:55;100603.38;;;10.86;100.00
46087;BME280;31824;49.648;8.640;2024-02-21T12:09:59;100593.69;;;10.68;100.00
46087;BME280;31824;49.648;8.640;2024-02-21T12:13:07;100587.31;;;10.83;100.00
46087;BME280;31824;49.648;8.640;2024-02-21T12:16:09;100584.81;;;10.85;100.00
46087;BME280;31824;49.648;8.640;2024-02-21T12:19:13;100570.38;;;11.07;100.00
46087;BME280;31824;49.648;8.640;2024-02-21T12:22:17;100562.41;;;10.88;100.00
46087;BME280;31824;49.648;8.640;2024-02-21T12:25:21;100557.09;;;10.97;100.00
46087;BME280;31824;49.648;8.640;2024-02-21T12:28:28;100551.75;;;11.14;100.00
46087;BME280;31824;49.648;8.640;2024-02-21T12:31:30;100539.22;;;11.21;100.00
46087;BME280;31824;49.648;8.640;2024-02-21T12:34:33;100538.81;;;11.07;100.00
46087;BME280;31824;49.648;8.640;2024-02-21T12:37:53;100532.25;;;10.93;100.00
46087;BME280;31824;49.648;8.640;2024-02-21T12:40:55;100522.50;;;11.20;100.00
46087;BME280;31824;49.648;8.640;2024-02-21T12:43:59;100509.06;;;11.17;100.00
46087;BME280;31824;49.648;8.640;2024-02-21T12:47:01;100508.47;;;11.11;100.00
46087;BME280;31824;49.648;8.640;2024-02-21T12:50:05;100500.91;;;11.05;100.00
46087;BME280;31824;49.648;8.640;2024-02-21T12:53:09;100501.13;;;10.98;100.00
46087;BME280;31824;49.648;8.640;2024-02-21T12:56:23;100485.22;;;10.88;100.00
46087;BME280;31824;49.648;8.640;2024-02-21T12:59:25;100485.22;;;10.88;100.00
46087;BME280;31824;49.648;8.640;2024-02-21T13:02:29;100475.94;;;10.91;100.00
46087;BME280;31824;49.648;8.640;2024-02-21T13:05:32;100468.28;;;10.84;100.00
46087;BME280;31824;49.648;8.640;2024-02-21T13:08:34;100467.78;;;10.88;100.00
46087;BME280;31824;49.648;8.640;2024-02-21T13:11:39;100462.88;;;10.83;100.00
46087;BME280;31824;49.648;8.640;2024-02-21T13:14:42;100461.78;;;10.80;100.00
46087;BME280;31824;49.648;8.640;2024-02-21T13:17:45;100459.91;;;10.88;100.00
46087;BME280;31824;49.648;8.640;2024-02-21T13:20:49;100446.53;;;10.95;100.00
46087;BME280;31824;49.648;8.640;2024-02-21T13:23:51;100432.00;;;10.99;100.00
46087;BME280;31824;49.648;8.640;2024-02-21T13:26:53;100431.06;;;10.98;100.00
46087;BME280;31824;49.648;8.640;2024-02-21T13:29:55;100430.84;;;10.87;100.00
46087;BME280;31824;49.648;8.640;2024-02-21T13:32:56;100416.91;;;10.88;100.00
46087;BME280;31824;49.648;8.640;2024-02-21T13:36:00;100399.22;;;10.95;100.00
46087;BME280;31824;49.648;8.640;2024-02-21T13:39:04;100399.88;;;10.93;100.00
46087;BME280;31824;49.648;8.640;2024-02-21T13:42:07;100396.38;;;11.03;100.00
46087;BME280;31824;49.648;8.640;2024-02-21T13:45:09;100402.16;;;11.18;100.00
46087;BME280;31824;49.648;8.640;2024-02-21T13:48:11;100396.41;;;11.22;100.00
46087;BME280;31824;49.648;8.640;2024-02-21T13:51:20;100368.47;;;11.13;100.00
46087;BME280;31824;49.648;8.640;2024-02-21T13:54:22;100376.22;;;11.12;100.00
46087;BME280;31824;49.648;8.640;2024-02-21T13:57:24;100367.41;;;11.11;100.00
46087;BME280;31824;49.648;8.640;2024-02-21T14:00:26;100365.06;;;10.95;100.00
46087;BME280;31824;49.648;8.640;2024-02-21T14:03:29;100354.19;;;11.01;100.00
46087;BME280;31824;49.648;8.640;2024-02-21T14:06:32;100344.19;;;10.97;100.00
46087;BME280;31824;49.648;8.640;2024-02-21T14:09:34;100343.53;;;11.00;100.00
46087;BME280;31824;49.648;8.640;2024-02-21T14:12:36;100338.78;;;10.95;100.00
46087;BME280;31824;49.648;8.640;2024-02-21T14:15:41;100332.63;;;10.95;100.00
46087;BME280;31824;49.648;8.640;2024-02-21T14:18:45;100326.13;;;10.91;100.00
46087;BME280;31824;49.648;8.640;2024-02-21T14:21:48;100307.47;;;10.88;100.00
46087;BME280;31824;49.648;8.640;2024-02-21T14:24:50;100295.50;;;10.92;100.00
46087;BME280;31824;49.648;8.640;2024-02-21T14:27:52;100284.84;;;10.90;100.00
46087;BME280;31824;49.648;8.640;2024-02-21T14:30:54;100276.56;;;10.86;100.00
46087;BME280;31824;49.648;8.640;2024-02-21T14:34:01;100277.31;;;10.85;100.00
46087;BME280;31824;49.648;8.640;2024-02-21T14:37:06;100264.41;;;10.77;100.00
46087;BME280;31824;49.648;8.640;2024-02-21T14:40:08;100255.59;;;10.77;100.00
46087;BME280;31824;49.648;8.640;2024-02-21T14:43:10;100246.94;;;10.78;100.00
46087;BME280;31824;49.648;8.640;2024-02-21T14:46:12;100229.63;;;10.80;100.00
46087;BME280;31824;49.648;8.640;2024-02-21T14:49:14;100229.28;;;10.96;100.00
46087;BME280;31824;49.648;8.640;2024-02-21T14:52:23;100230.56;;;11.10;100.00
46087;BME280;31824;49.648;8.640;2024-02-21T14:55:26;100215.00;;;11.03;100.00
46087;BME280;31824;49.648;8.640;2024-02-21T14:58:28;100222.81;;;11.11;100.00
46087;BME280;31824;49.648;8.640;2024-02-21T15:01:30;100228.28;;;11.04;100.00
46087;BME280;31824;49.648;8.640;2024-02-21T15:04:33;100219.22;;;11.01;100.00
46087;BME280;31824;49.648;8.640;2024-02-21T15:07:36;100210.97;;;11.06;100.00
46087;BME280;31824;49.648;8.640;2024-02-21T15:10:38;100217.88;;;10.95;100.00
46087;BME280;31824;49.648;8.640;2024-02-21T15:13:40;100208.94;;;10.93;100.00
46087;BME280;31824;49.648;8.640;2024-02-21T15:16:44;100201.56;;;10.89;100.00
46087;BME280;31824;49.648;8.640;2024-02-21T15:19:46;100195.09;;;10.86;100.00
46087;BME280;31824;49.648;8.640;2024-02-21T15:22:51;100180.34;;;10.88;100.00
46087;BME280;31824;49.648;8.640;2024-02-21T15:25:54;100175.34;;;10.80;100.00
46087;BME280;31824;49.648;8.640;2024-02-21T15:28:55;100165.47;;;10.78;100.00
46087;BME280;31824;49.648;8.640;2024-02-21T15:31:59;100163.22;;;10.72;100.00
46087;BME280;31824;49.648;8.640;2024-02-21T15:35:01;100157.06;;;10.72;100.00
46087;BME280;31824;49.648;8.640;2024-02-21T15:38:05;100143.75;;;10.70;100.00
46087;BME280;31824;49.648;8.640;2024-02-21T15:41:08;100144.69;;;10.71;100.00
46087;BME280;31824;49.648;8.640;2024-02-21T15:44:12;100144.25;;;10.66;100.00
46087;BME280;31824;49.648;8.640;2024-02-21T15:47:14;100128.34;;;10.64;100.00
46087;BME280;31824;49.648;8.640;2024-02-21T15:50:19;100129.00;;;10.62;100.00
46087;BME280;31824;49.648;8.640;2024-02-21T15:53:22;100126.22;;;10.60;100.00